sensor_id;sensor_type;location;lat;lon;timestamp;temperature;humidity
24426;DHT22;12611;44.446;26.000;2023-03-01T00:01:25;10.30;81.40
24426;DHT22;12611;44.446;26.000;2023-03-01T00:03:54;10.30;81.30
24426;DHT22;12611;44.446;26.000;2023-03-01T00:06:23;10.40;81.30
24426;DHT22;12611;44.446;26.000;2023-03-01T00:08:52;10.40;81.40
24426;DHT22;12611;44.446;26.000;2023-03-01T00:11:22;10.40;81.50
24426;DHT22;12611;44.446;26.000;2023-03-01T00:13:52;10.40;81.20
24426;DHT22;12611;44.446;26.000;2023-03-01T00:16:23;10.40;81.10
24426;DHT22;12611;44.446;26.000;2023-03-01T00:18:53;10.40;81.20
24426;DHT22;12611;44.446;26.000;2023-03-01T00:21:22;10.40;81.30
24426;DHT22;12611;44.446;26.000;2023-03-01T00:23:51;10.50;81.40
24426;DHT22;12611;44.446;26.000;2023-03-01T00:26:21;10.40;81.10
24426;DHT22;12611;44.446;26.000;2023-03-01T00:28:50;10.50;81.20
24426;DHT22;12611;44.446;26.000;2023-03-01T00:31:20;10.40;80.90
24426;DHT22;12611;44.446;26.000;2023-03-01T00:33:52;10.50;81.00
24426;DHT22;12611;44.446;26.000;2023-03-01T00:36:20;10.50;80.70
24426;DHT22;12611;44.446;26.000;2023-03-01T00:38:49;10.50;80.80
24426;DHT22;12611;44.446;26.000;2023-03-01T00:41:19;10.50;80.70
24426;DHT22;12611;44.446;26.000;2023-03-01T00:43:52;10.50;80.70
24426;DHT22;12611;44.446;26.000;2023-03-01T00:46:22;10.40;80.60
24426;DHT22;12611;44.446;26.000;2023-03-01T00:48:52;10.40;80.40
24426;DHT22;12611;44.446;26.000;2023-03-01T00:51:23;10.50;80.60
24426;DHT22;12611;44.446;26.000;2023-03-01T00:53:52;10.50;80.50
24426;DHT22;12611;44.446;26.000;2023-03-01T00:56:21;10.50;80.40
24426;DHT22;12611;44.446;26.000;2023-03-01T00:58:49;10.50;80.00
24426;DHT22;12611;44.446;26.000;2023-03-01T01:01:19;10.50;80.10
24426;DHT22;12611;44.446;26.000;2023-03-01T01:03:51;10.40;80.00
24426;DHT22;12611;44.446;26.000;2023-03-01T01:06:23;10.40;81.00
24426;DHT22;12611;44.446;26.000;2023-03-01T01:08:53;10.30;80.40
24426;DHT22;12611;44.446;26.000;2023-03-01T01:11:23;10.40;80.50
24426;DHT22;12611;44.446;26.000;2023-03-01T01:13:52;10.40;80.50
24426;DHT22;12611;44.446;26.000;2023-03-01T01:16:22;10.40;80.50
24426;DHT22;12611;44.446;26.000;2023-03-01T01:18:51;10.40;80.50
24426;DHT22;12611;44.446;26.000;2023-03-01T01:21:23;10.40;80.50
24426;DHT22;12611;44.446;26.000;2023-03-01T01:23:52;10.40;80.50
24426;DHT22;12611;44.446;26.000;2023-03-01T01:26:23;10.40;80.40
24426;DHT22;12611;44.446;26.000;2023-03-01T01:28:52;10.30;80.40
24426;DHT22;12611;44.446;26.000;2023-03-01T01:31:21;10.30;80.30
24426;DHT22;12611;44.446;26.000;2023-03-01T01:33:51;10.30;80.30
24426;DHT22;12611;44.446;26.000;2023-03-01T01:36:21;10.20;80.30
24426;DHT22;12611;44.446;26.000;2023-03-01T01:38:50;10.20;80.40
24426;DHT22;12611;44.446;26.000;2023-03-01T01:41:19;10.20;80.40
24426;DHT22;12611;44.446;26.000;2023-03-01T01:43:49;10.20;80.50
24426;DHT22;12611;44.446;26.000;2023-03-01T01:46:26;10.20;80.70
24426;DHT22;12611;44.446;26.000;2023-03-01T01:49:00;10.10;80.80
24426;DHT22;12611;44.446;26.000;2023-03-01T01:51:35;10.10;81.00
24426;DHT22;12611;44.446;26.000;2023-03-01T01:54:08;10.20;81.10
24426;DHT22;12611;44.446;26.000;2023-03-01T01:56:38;10.20;81.10
24426;DHT22;12611;44.446;26.000;2023-03-01T01:59:09;10.20;81.00
24426;DHT22;12611;44.446;26.000;2023-03-01T02:01:40;10.30;80.90
24426;DHT22;12611;44.446;26.000;2023-03-01T02:04:08;10.30;80.90
24426;DHT22;12611;44.446;26.000;2023-03-01T02:06:41;10.30;81.00
24426;DHT22;12611;44.446;26.000;2023-03-01T02:09:14;10.30;80.90
24426;DHT22;12611;44.446;26.000;2023-03-01T02:11:44;10.30;80.90
24426;DHT22;12611;44.446;26.000;2023-03-01T02:14:12;10.30;80.90
24426;DHT22;12611;44.446;26.000;2023-03-01T02:16:42;10.30;81.00
24426;DHT22;12611;44.446;26.000;2023-03-01T02:19:19;10.30;81.00
24426;DHT22;12611;44.446;26.000;2023-03-01T02:21:58;10.20;80.70
24426;DHT22;12611;44.446;26.000;2023-03-01T02:24:36;10.20;80.90
24426;DHT22;12611;44.446;26.000;2023-03-01T02:27:07;10.20;80.80
24426;DHT22;12611;44.446;26.000;2023-03-01T02:29:38;10.20;80.80
24426;DHT22;12611;44.446;26.000;2023-03-01T02:32:07;10.20;80.80
24426;DHT22;12611;44.446;26.000;2023-03-01T02:34:37;10.20;80.80
24426;DHT22;12611;44.446;26.000;2023-03-01T02:37:09;10.30;80.60
24426;DHT22;12611;44.446;26.000;2023-03-01T02:39:41;10.30;80.50
24426;DHT22;12611;44.446;26.000;2023-03-01T02:42:13;10.30;80.40
24426;DHT22;12611;44.446;26.000;2023-03-01T02:44:44;10.30;80.40
24426;DHT22;12611;44.446;26.000;2023-03-01T02:47:12;10.20;80.40
24426;DHT22;12611;44.446;26.000;2023-03-01T02:49:40;10.20;80.40
24426;DHT22;12611;44.446;26.000;2023-03-01T02:52:22;10.20;80.40
24426;DHT22;12611;44.446;26.000;2023-03-01T02:54:56;10.30;80.40
24426;DHT22;12611;44.446;26.000;2023-03-01T02:57:28;10.20;80.20
24426;DHT22;12611;44.446;26.000;2023-03-01T03:00:03;10.20;80.10
24426;DHT22;12611;44.446;26.000;2023-03-01T03:02:34;10.20;80.20
24426;DHT22;12611;44.446;26.000;2023-03-01T03:05:08;10.20;80.30
24426;DHT22;12611;44.446;26.000;2023-03-01T03:07:39;10.20;80.40
24426;DHT22;12611;44.446;26.000;2023-03-01T03:10:10;10.20;80.40
24426;DHT22;12611;44.446;26.000;2023-03-01T03:12:39;10.10;80.30
24426;DHT22;12611;44.446;26.000;2023-03-01T03:15:10;10.10;80.40
24426;DHT22;12611;44.446;26.000;2023-03-01T03:17:41;10.10;80.40
24426;DHT22;12611;44.446;26.000;2023-03-01T03:20:14;10.10;81.10
24426;DHT22;12611;44.446;26.000;2023-03-01T03:22:46;10.10;81.10
24426;DHT22;12611;44.446;26.000;2023-03-01T03:25:16;10.10;81.00
24426;DHT22;12611;44.446;26.000;2023-03-01T03:27:46;10.10;80.80
24426;DHT22;12611;44.446;26.000;2023-03-01T03:30:17;10.10;80.80
24426;DHT22;12611;44.446;26.000;2023-03-01T03:32:47;10.20;80.80
24426;DHT22;12611;44.446;26.000;2023-03-01T03:35:20;10.20;80.70
24426;DHT22;12611;44.446;26.000;2023-03-01T03:37:49;10.10;80.80
24426;DHT22;12611;44.446;26.000;2023-03-01T03:40:31;10.10;80.90
24426;DHT22;12611;44.446;26.000;2023-03-01T03:43:01;10.10;80.90
24426;DHT22;12611;44.446;26.000;2023-03-01T03:45:31;10.10;80.90
24426;DHT22;12611;44.446;26.000;2023-03-01T03:48:00;10.10;80.90
24426;DHT22;12611;44.446;26.000;2023-03-01T03:50:29;10.10;81.00
24426;DHT22;12611;44.446;26.000;2023-03-01T03:53:00;10.20;81.00
24426;DHT22;12611;44.446;26.000;2023-03-01T03:55:29;10.10;81.10
24426;DHT22;12611;44.446;26.000;2023-03-01T03:57:58;10.10;81.00
24426;DHT22;12611;44.446;26.000;2023-03-01T04:00:30;10.10;81.10
24426;DHT22;12611;44.446;26.000;2023-03-01T04:02:59;10.10;81.40
24426;DHT22;12611;44.446;26.000;2023-03-01T04:05:28;10.10;81.30
24426;DHT22;12611;44.446;26.000;2023-03-01T04:07:57;10.10;81.20
24426;DHT22;12611;44.446;26.000;2023-03-01T04:10:36;10.10;81.10
24426;DHT22;12611;44.446;26.000;2023-03-01T04:13:05;10.10;81.20
24426;DHT22;12611;44.446;26.000;2023-03-01T04:15:35;10.10;81.20
24426;DHT22;12611;44.446;26.000;2023-03-01T04:18:06;10.10;81.30
24426;DHT22;12611;44.446;26.000;2023-03-01T04:20:37;10.20;81.30
24426;DHT22;12611;44.446;26.000;2023-03-01T04:23:07;10.10;81.20
24426;DHT22;12611;44.446;26.000;2023-03-01T04:25:41;10.10;81.50
24426;DHT22;12611;44.446;26.000;2023-03-01T04:28:10;10.10;81.40
24426;DHT22;12611;44.446;26.000;2023-03-01T04:30:40;10.00;81.60
24426;DHT22;12611;44.446;26.000;2023-03-01T04:33:10;10.00;81.60
24426;DHT22;12611;44.446;26.000;2023-03-01T04:35:38;10.00;81.90
24426;DHT22;12611;44.446;26.000;2023-03-01T04:38:07;10.00;81.90
24426;DHT22;12611;44.446;26.000;2023-03-01T04:40:36;10.00;81.80
24426;DHT22;12611;44.446;26.000;2023-03-01T04:43:05;10.00;81.90
24426;DHT22;12611;44.446;26.000;2023-03-01T04:45:33;10.00;82.10
24426;DHT22;12611;44.446;26.000;2023-03-01T04:48:07;9.90;82.20
24426;DHT22;12611;44.446;26.000;2023-03-01T04:50:35;10.00;82.30
24426;DHT22;12611;44.446;26.000;2023-03-01T04:53:03;10.00;82.20
24426;DHT22;12611;44.446;26.000;2023-03-01T04:55:33;10.00;82.30
24426;DHT22;12611;44.446;26.000;2023-03-01T04:58:01;10.00;82.30
24426;DHT22;12611;44.446;26.000;2023-03-01T05:00:29;10.00;82.40
24426;DHT22;12611;44.446;26.000;2023-03-01T05:02:59;10.00;82.50
24426;DHT22;12611;44.446;26.000;2023-03-01T05:05:32;10.00;82.60
24426;DHT22;12611;44.446;26.000;2023-03-01T05:08:03;10.00;82.50
24426;DHT22;12611;44.446;26.000;2023-03-01T05:10:33;10.00;82.60
24426;DHT22;12611;44.446;26.000;2023-03-01T05:13:03;10.00;82.60
24426;DHT22;12611;44.446;26.000;2023-03-01T05:15:32;10.00;82.60
24426;DHT22;12611;44.446;26.000;2023-03-01T05:18:00;10.00;82.70
24426;DHT22;12611;44.446;26.000;2023-03-01T05:20:30;10.00;82.70
24426;DHT22;12611;44.446;26.000;2023-03-01T05:22:59;10.00;82.90
24426;DHT22;12611;44.446;26.000;2023-03-01T05:25:35;10.00;82.90
24426;DHT22;12611;44.446;26.000;2023-03-01T05:28:10;10.00;82.80
24426;DHT22;12611;44.446;26.000;2023-03-01T05:30:40;10.00;82.80
24426;DHT22;12611;44.446;26.000;2023-03-01T05:33:09;10.10;82.80
24426;DHT22;12611;44.446;26.000;2023-03-01T05:35:42;10.10;82.80
24426;DHT22;12611;44.446;26.000;2023-03-01T05:38:12;10.00;82.70
24426;DHT22;12611;44.446;26.000;2023-03-01T05:40:42;10.10;82.80
24426;DHT22;12611;44.446;26.000;2023-03-01T05:43:11;10.10;82.90
24426;DHT22;12611;44.446;26.000;2023-03-01T05:45:40;10.10;82.80
24426;DHT22;12611;44.446;26.000;2023-03-01T05:48:10;10.10;82.70
24426;DHT22;12611;44.446;26.000;2023-03-01T05:50:42;10.10;82.70
24426;DHT22;12611;44.446;26.000;2023-03-01T05:53:12;10.10;82.70
24426;DHT22;12611;44.446;26.000;2023-03-01T05:55:42;10.20;82.70
24426;DHT22;12611;44.446;26.000;2023-03-01T05:58:12;10.20;82.60
24426;DHT22;12611;44.446;26.000;2023-03-01T06:00:43;10.30;82.60
24426;DHT22;12611;44.446;26.000;2023-03-01T06:03:13;10.30;82.50
24426;DHT22;12611;44.446;26.000;2023-03-01T06:05:43;10.30;82.40
24426;DHT22;12611;44.446;26.000;2023-03-01T06:08:13;10.20;82.60
24426;DHT22;12611;44.446;26.000;2023-03-01T06:10:41;10.20;82.60
24426;DHT22;12611;44.446;26.000;2023-03-01T06:13:09;10.20;82.70
24426;DHT22;12611;44.446;26.000;2023-03-01T06:15:38;10.30;82.70
24426;DHT22;12611;44.446;26.000;2023-03-01T06:18:06;10.30;82.70
24426;DHT22;12611;44.446;26.000;2023-03-01T06:20:35;10.40;82.60
24426;DHT22;12611;44.446;26.000;2023-03-01T06:23:05;10.40;82.60
24426;DHT22;12611;44.446;26.000;2023-03-01T06:25:35;10.40;82.50
24426;DHT22;12611;44.446;26.000;2023-03-01T06:28:04;10.30;82.50
24426;DHT22;12611;44.446;26.000;2023-03-01T06:30:32;10.30;82.50
24426;DHT22;12611;44.446;26.000;2023-03-01T06:33:00;10.30;82.50
24426;DHT22;12611;44.446;26.000;2023-03-01T06:35:31;10.30;82.50
24426;DHT22;12611;44.446;26.000;2023-03-01T06:38:01;10.40;82.60
24426;DHT22;12611;44.446;26.000;2023-03-01T06:40:31;10.30;82.60
24426;DHT22;12611;44.446;26.000;2023-03-01T06:43:02;10.30;82.70
24426;DHT22;12611;44.446;26.000;2023-03-01T06:45:30;10.30;82.70
24426;DHT22;12611;44.446;26.000;2023-03-01T06:48:03;10.30;83.20
24426;DHT22;12611;44.446;26.000;2023-03-01T06:50:33;10.30;83.30
24426;DHT22;12611;44.446;26.000;2023-03-01T06:53:02;10.30;83.50
24426;DHT22;12611;44.446;26.000;2023-03-01T06:55:32;10.30;83.50
24426;DHT22;12611;44.446;26.000;2023-03-01T06:58:01;10.30;83.40
24426;DHT22;12611;44.446;26.000;2023-03-01T07:00:31;10.30;83.50
24426;DHT22;12611;44.446;26.000;2023-03-01T07:03:01;10.30;83.30
24426;DHT22;12611;44.446;26.000;2023-03-01T07:05:30;10.40;83.40
24426;DHT22;12611;44.446;26.000;2023-03-01T07:07:58;10.40;83.40
24426;DHT22;12611;44.446;26.000;2023-03-01T07:10:27;10.40;83.40
24426;DHT22;12611;44.446;26.000;2023-03-01T07:13:00;10.40;83.30
24426;DHT22;12611;44.446;26.000;2023-03-01T07:15:29;10.40;83.30
24426;DHT22;12611;44.446;26.000;2023-03-01T07:17:57;10.40;83.30
24426;DHT22;12611;44.446;26.000;2023-03-01T07:20:25;10.40;83.30
24426;DHT22;12611;44.446;26.000;2023-03-01T07:22:54;10.40;83.40
24426;DHT22;12611;44.446;26.000;2023-03-01T07:25:23;10.50;83.50
24426;DHT22;12611;44.446;26.000;2023-03-01T07:27:52;10.50;83.50
24426;DHT22;12611;44.446;26.000;2023-03-01T07:30:22;10.50;83.50
24426;DHT22;12611;44.446;26.000;2023-03-01T07:32:53;10.50;83.60
24426;DHT22;12611;44.446;26.000;2023-03-01T07:35:22;10.50;83.50
24426;DHT22;12611;44.446;26.000;2023-03-01T07:37:52;10.50;83.40
24426;DHT22;12611;44.446;26.000;2023-03-01T07:40:21;10.50;83.50
24426;DHT22;12611;44.446;26.000;2023-03-01T07:42:55;10.50;83.40
24426;DHT22;12611;44.446;26.000;2023-03-01T07:45:26;10.50;83.40
24426;DHT22;12611;44.446;26.000;2023-03-01T07:47:55;10.50;83.50
24426;DHT22;12611;44.446;26.000;2023-03-01T07:50:23;10.50;83.40
24426;DHT22;12611;44.446;26.000;2023-03-01T07:52:51;10.50;84.40
24426;DHT22;12611;44.446;26.000;2023-03-01T07:55:20;10.50;83.60
24426;DHT22;12611;44.446;26.000;2023-03-01T07:57:48;10.50;83.80
24426;DHT22;12611;44.446;26.000;2023-03-01T08:00:17;10.60;83.90
24426;DHT22;12611;44.446;26.000;2023-03-01T08:02:47;10.60;83.80
24426;DHT22;12611;44.446;26.000;2023-03-01T08:05:16;10.60;83.80
24426;DHT22;12611;44.446;26.000;2023-03-01T08:07:44;10.60;83.70
24426;DHT22;12611;44.446;26.000;2023-03-01T08:10:14;10.60;83.70
24426;DHT22;12611;44.446;26.000;2023-03-01T08:12:42;10.70;83.70
24426;DHT22;12611;44.446;26.000;2023-03-01T08:15:11;10.70;83.80
24426;DHT22;12611;44.446;26.000;2023-03-01T08:17:40;10.70;83.70
24426;DHT22;12611;44.446;26.000;2023-03-01T08:20:11;10.70;83.80
24426;DHT22;12611;44.446;26.000;2023-03-01T08:22:39;10.70;83.90
24426;DHT22;12611;44.446;26.000;2023-03-01T08:25:08;10.70;83.90
24426;DHT22;12611;44.446;26.000;2023-03-01T08:27:37;10.70;84.00
24426;DHT22;12611;44.446;26.000;2023-03-01T08:30:06;10.80;83.90
24426;DHT22;12611;44.446;26.000;2023-03-01T08:32:38;10.70;83.80
24426;DHT22;12611;44.446;26.000;2023-03-01T08:35:07;10.80;83.90
24426;DHT22;12611;44.446;26.000;2023-03-01T08:37:38;10.80;83.80
24426;DHT22;12611;44.446;26.000;2023-03-01T08:40:08;10.80;83.90
24426;DHT22;12611;44.446;26.000;2023-03-01T08:42:37;10.80;84.10
24426;DHT22;12611;44.446;26.000;2023-03-01T08:45:06;10.80;84.10
24426;DHT22;12611;44.446;26.000;2023-03-01T08:47:35;10.90;84.00
24426;DHT22;12611;44.446;26.000;2023-03-01T08:50:04;10.90;83.90
24426;DHT22;12611;44.446;26.000;2023-03-01T08:52:33;10.90;84.60
24426;DHT22;12611;44.446;26.000;2023-03-01T08:55:03;10.90;83.70
24426;DHT22;12611;44.446;26.000;2023-03-01T08:57:32;11.00;83.70
24426;DHT22;12611;44.446;26.000;2023-03-01T09:00:01;11.00;83.70
24426;DHT22;12611;44.446;26.000;2023-03-01T09:02:34;11.00;83.60
24426;DHT22;12611;44.446;26.000;2023-03-01T09:05:03;11.00;83.60
24426;DHT22;12611;44.446;26.000;2023-03-01T09:07:31;11.10;83.60
24426;DHT22;12611;44.446;26.000;2023-03-01T09:10:01;11.10;83.40
24426;DHT22;12611;44.446;26.000;2023-03-01T09:12:30;11.10;83.30
24426;DHT22;12611;44.446;26.000;2023-03-01T09:14:58;11.10;83.20
24426;DHT22;12611;44.446;26.000;2023-03-01T09:17:27;11.10;83.10
24426;DHT22;12611;44.446;26.000;2023-03-01T09:19:55;11.10;83.10
24426;DHT22;12611;44.446;26.000;2023-03-01T09:22:23;11.10;82.80
24426;DHT22;12611;44.446;26.000;2023-03-01T09:24:52;11.10;82.90
24426;DHT22;12611;44.446;26.000;2023-03-01T09:27:51;11.10;83.00
24426;DHT22;12611;44.446;26.000;2023-03-01T09:30:20;11.10;83.30
24426;DHT22;12611;44.446;26.000;2023-03-01T09:32:49;11.10;83.30
24426;DHT22;12611;44.446;26.000;2023-03-01T09:35:25;11.20;83.30
24426;DHT22;12611;44.446;26.000;2023-03-01T09:37:55;11.20;83.20
24426;DHT22;12611;44.446;26.000;2023-03-01T09:40:26;11.20;83.20
24426;DHT22;12611;44.446;26.000;2023-03-01T09:43:21;11.20;83.10
24426;DHT22;12611;44.446;26.000;2023-03-01T09:45:55;11.10;83.00
24426;DHT22;12611;44.446;26.000;2023-03-01T09:48:26;11.10;83.00
24426;DHT22;12611;44.446;26.000;2023-03-01T09:50:56;11.10;83.00
24426;DHT22;12611;44.446;26.000;2023-03-01T09:53:33;11.10;83.00
24426;DHT22;12611;44.446;26.000;2023-03-01T09:56:17;11.00;82.90
24426;DHT22;12611;44.446;26.000;2023-03-01T09:58:56;11.00;83.00
24426;DHT22;12611;44.446;26.000;2023-03-01T10:01:32;11.00;83.10
24426;DHT22;12611;44.446;26.000;2023-03-01T10:04:26;11.00;83.10
24426;DHT22;12611;44.446;26.000;2023-03-01T10:07:05;11.10;83.40
24426;DHT22;12611;44.446;26.000;2023-03-01T10:09:37;11.10;83.40
24426;DHT22;12611;44.446;26.000;2023-03-01T10:12:10;11.10;83.50
24426;DHT22;12611;44.446;26.000;2023-03-01T10:14:46;11.00;83.00
24426;DHT22;12611;44.446;26.000;2023-03-01T10:17:26;10.90;82.80
24426;DHT22;12611;44.446;26.000;2023-03-01T10:19:55;11.00;83.10
24426;DHT22;12611;44.446;26.000;2023-03-01T10:22:28;11.00;83.10
24426;DHT22;12611;44.446;26.000;2023-03-01T10:24:59;11.00;83.40
24426;DHT22;12611;44.446;26.000;2023-03-01T10:27:36;11.00;83.20
24426;DHT22;12611;44.446;26.000;2023-03-01T10:30:16;11.00;83.30
24426;DHT22;12611;44.446;26.000;2023-03-01T10:32:48;11.10;83.40
24426;DHT22;12611;44.446;26.000;2023-03-01T10:35:18;11.00;83.10
24426;DHT22;12611;44.446;26.000;2023-03-01T10:37:57;11.10;83.10
24426;DHT22;12611;44.446;26.000;2023-03-01T10:40:26;11.10;83.10
24426;DHT22;12611;44.446;26.000;2023-03-01T10:42:58;11.10;82.90
24426;DHT22;12611;44.446;26.000;2023-03-01T10:45:33;11.10;82.80
24426;DHT22;12611;44.446;26.000;2023-03-01T10:48:21;11.10;83.00
24426;DHT22;12611;44.446;26.000;2023-03-01T10:51:05;11.10;83.20
24426;DHT22;12611;44.446;26.000;2023-03-01T10:53:35;11.20;83.30
24426;DHT22;12611;44.446;26.000;2023-03-01T10:56:06;11.20;83.20
24426;DHT22;12611;44.446;26.000;2023-03-01T10:58:36;11.20;83.30
24426;DHT22;12611;44.446;26.000;2023-03-01T11:01:25;11.20;83.30
24426;DHT22;12611;44.446;26.000;2023-03-01T11:04:11;11.30;83.40
24426;DHT22;12611;44.446;26.000;2023-03-01T11:06:40;11.30;83.30
24426;DHT22;12611;44.446;26.000;2023-03-01T11:09:17;11.30;83.30
24426;DHT22;12611;44.446;26.000;2023-03-01T11:11:46;11.30;83.20
24426;DHT22;12611;44.446;26.000;2023-03-01T11:14:21;11.40;83.30
24426;DHT22;12611;44.446;26.000;2023-03-01T11:17:02;11.40;83.00
24426;DHT22;12611;44.446;26.000;2023-03-01T11:19:31;11.40;83.00
24426;DHT22;12611;44.446;26.000;2023-03-01T11:22:03;11.40;82.10
24426;DHT22;12611;44.446;26.000;2023-03-01T11:24:37;11.50;82.50
24426;DHT22;12611;44.446;26.000;2023-03-01T11:27:16;11.50;82.10
24426;DHT22;12611;44.446;26.000;2023-03-01T11:29:47;11.60;82.40
24426;DHT22;12611;44.446;26.000;2023-03-01T11:32:23;11.60;82.30
24426;DHT22;12611;44.446;26.000;2023-03-01T11:34:56;11.70;82.20
24426;DHT22;12611;44.446;26.000;2023-03-01T11:37:33;11.70;82.30
24426;DHT22;12611;44.446;26.000;2023-03-01T11:40:10;11.70;82.20
24426;DHT22;12611;44.446;26.000;2023-03-01T11:42:53;11.70;82.30
24426;DHT22;12611;44.446;26.000;2023-03-01T11:45:26;11.80;82.00
24426;DHT22;12611;44.446;26.000;2023-03-01T11:48:12;11.80;81.60
24426;DHT22;12611;44.446;26.000;2023-03-01T11:50:48;11.80;81.10
24426;DHT22;12611;44.446;26.000;2023-03-01T11:53:44;11.80;80.70
24426;DHT22;12611;44.446;26.000;2023-03-01T11:56:26;11.80;80.90
24426;DHT22;12611;44.446;26.000;2023-03-01T11:59:27;11.90;81.00
24426;DHT22;12611;44.446;26.000;2023-03-01T12:02:23;11.90;80.90
24426;DHT22;12611;44.446;26.000;2023-03-01T12:05:14;11.90;81.00
24426;DHT22;12611;44.446;26.000;2023-03-01T12:07:53;11.90;81.00
24426;DHT22;12611;44.446;26.000;2023-03-01T12:10:27;11.90;80.70
24426;DHT22;12611;44.446;26.000;2023-03-01T12:13:19;12.00;80.80
24426;DHT22;12611;44.446;26.000;2023-03-01T12:16:03;12.10;80.90
24426;DHT22;12611;44.446;26.000;2023-03-01T12:18:55;12.10;80.40
24426;DHT22;12611;44.446;26.000;2023-03-01T12:21:36;12.20;80.10
24426;DHT22;12611;44.446;26.000;2023-03-01T12:24:27;12.20;79.80
24426;DHT22;12611;44.446;26.000;2023-03-01T12:27:18;12.20;80.00
24426;DHT22;12611;44.446;26.000;2023-03-01T12:29:57;12.30;79.90
24426;DHT22;12611;44.446;26.000;2023-03-01T12:32:40;12.40;79.70
24426;DHT22;12611;44.446;26.000;2023-03-01T12:35:25;12.40;79.40
24426;DHT22;12611;44.446;26.000;2023-03-01T12:38:06;12.40;78.80
24426;DHT22;12611;44.446;26.000;2023-03-01T12:40:54;12.50;79.10
24426;DHT22;12611;44.446;26.000;2023-03-01T12:43:33;12.50;78.60
24426;DHT22;12611;44.446;26.000;2023-03-01T12:46:22;12.40;77.70
24426;DHT22;12611;44.446;26.000;2023-03-01T12:49:01;12.40;78.40
24426;DHT22;12611;44.446;26.000;2023-03-01T12:51:31;12.30;78.20
24426;DHT22;12611;44.446;26.000;2023-03-01T12:54:12;12.30;77.80
24426;DHT22;12611;44.446;26.000;2023-03-01T12:56:43;12.20;77.90
24426;DHT22;12611;44.446;26.000;2023-03-01T12:59:23;12.20;78.10
24426;DHT22;12611;44.446;26.000;2023-03-01T13:01:56;12.20;78.20
24426;DHT22;12611;44.446;26.000;2023-03-01T13:04:40;12.10;77.60
24426;DHT22;12611;44.446;26.000;2023-03-01T13:07:20;12.10;77.70
24426;DHT22;12611;44.446;26.000;2023-03-01T13:10:00;12.10;77.90
24426;DHT22;12611;44.446;26.000;2023-03-01T13:12:53;12.10;78.80
24426;DHT22;12611;44.446;26.000;2023-03-01T13:15:31;12.10;78.20
24426;DHT22;12611;44.446;26.000;2023-03-01T13:18:02;12.10;78.30
24426;DHT22;12611;44.446;26.000;2023-03-01T13:20:34;12.10;78.50
24426;DHT22;12611;44.446;26.000;2023-03-01T13:23:12;12.10;78.60
24426;DHT22;12611;44.446;26.000;2023-03-01T13:26:13;12.10;78.40
24426;DHT22;12611;44.446;26.000;2023-03-01T13:29:00;12.10;78.00
24426;DHT22;12611;44.446;26.000;2023-03-01T13:31:58;12.20;78.00
24426;DHT22;12611;44.446;26.000;2023-03-01T13:34:46;12.20;78.60
24426;DHT22;12611;44.446;26.000;2023-03-01T13:37:23;12.20;79.50
24426;DHT22;12611;44.446;26.000;2023-03-01T13:39:58;12.20;77.70
24426;DHT22;12611;44.446;26.000;2023-03-01T13:42:45;12.20;77.90
24426;DHT22;12611;44.446;26.000;2023-03-01T13:45:39;12.20;77.50
24426;DHT22;12611;44.446;26.000;2023-03-01T13:48:11;12.20;77.40
24426;DHT22;12611;44.446;26.000;2023-03-01T13:50:46;12.20;77.70
24426;DHT22;12611;44.446;26.000;2023-03-01T13:53:18;12.20;77.90
24426;DHT22;12611;44.446;26.000;2023-03-01T13:55:49;12.20;77.70
24426;DHT22;12611;44.446;26.000;2023-03-01T13:58:25;12.20;78.00
24426;DHT22;12611;44.446;26.000;2023-03-01T14:00:58;12.20;78.00
24426;DHT22;12611;44.446;26.000;2023-03-01T14:03:31;12.20;77.90
24426;DHT22;12611;44.446;26.000;2023-03-01T14:06:03;12.20;78.00
24426;DHT22;12611;44.446;26.000;2023-03-01T14:08:43;12.20;78.10
24426;DHT22;12611;44.446;26.000;2023-03-01T14:14:59;12.20;77.50
24426;DHT22;12611;44.446;26.000;2023-03-01T14:17:49;12.20;77.50
24426;DHT22;12611;44.446;26.000;2023-03-01T14:20:21;12.10;77.30
24426;DHT22;12611;44.446;26.000;2023-03-01T14:22:52;12.10;77.30
24426;DHT22;12611;44.446;26.000;2023-03-01T14:25:26;12.10;77.20
24426;DHT22;12611;44.446;26.000;2023-03-01T14:28:03;12.10;77.30
24426;DHT22;12611;44.446;26.000;2023-03-01T14:30:36;12.00;77.00
24426;DHT22;12611;44.446;26.000;2023-03-01T14:33:20;12.00;77.20
24426;DHT22;12611;44.446;26.000;2023-03-01T14:35:53;11.90;77.40
24426;DHT22;12611;44.446;26.000;2023-03-01T14:38:28;11.90;77.30
24426;DHT22;12611;44.446;26.000;2023-03-01T14:40:59;11.90;77.60
24426;DHT22;12611;44.446;26.000;2023-03-01T14:43:32;11.90;77.90
24426;DHT22;12611;44.446;26.000;2023-03-01T14:46:02;11.90;78.10
24426;DHT22;12611;44.446;26.000;2023-03-01T14:48:31;11.90;78.20
24426;DHT22;12611;44.446;26.000;2023-03-01T14:51:00;11.90;78.30
24426;DHT22;12611;44.446;26.000;2023-03-01T14:53:29;11.80;78.20
24426;DHT22;12611;44.446;26.000;2023-03-01T14:56:16;11.90;78.40
24426;DHT22;12611;44.446;26.000;2023-03-01T14:58:44;11.80;78.40
24426;DHT22;12611;44.446;26.000;2023-03-01T15:01:17;11.80;78.50
24426;DHT22;12611;44.446;26.000;2023-03-01T15:03:47;11.80;78.70
24426;DHT22;12611;44.446;26.000;2023-03-01T15:06:18;11.80;78.80
24426;DHT22;12611;44.446;26.000;2023-03-01T15:08:48;11.80;78.80
24426;DHT22;12611;44.446;26.000;2023-03-01T15:11:20;11.80;78.90
24426;DHT22;12611;44.446;26.000;2023-03-01T15:13:52;11.80;78.90
24426;DHT22;12611;44.446;26.000;2023-03-01T15:16:24;11.70;78.90
24426;DHT22;12611;44.446;26.000;2023-03-01T15:18:55;11.70;78.90
24426;DHT22;12611;44.446;26.000;2023-03-01T15:21:27;11.70;79.00
24426;DHT22;12611;44.446;26.000;2023-03-01T15:23:59;11.70;79.00
24426;DHT22;12611;44.446;26.000;2023-03-01T15:26:39;11.70;79.10
24426;DHT22;12611;44.446;26.000;2023-03-01T15:29:16;11.70;79.30
24426;DHT22;12611;44.446;26.000;2023-03-01T15:31:56;11.70;79.30
24426;DHT22;12611;44.446;26.000;2023-03-01T15:34:27;11.60;79.30
24426;DHT22;12611;44.446;26.000;2023-03-01T15:36:56;11.60;79.30
24426;DHT22;12611;44.446;26.000;2023-03-01T15:39:38;11.60;79.40
24426;DHT22;12611;44.446;26.000;2023-03-01T15:42:09;11.60;79.40
24426;DHT22;12611;44.446;26.000;2023-03-01T15:44:40;11.60;79.50
24426;DHT22;12611;44.446;26.000;2023-03-01T15:47:28;11.60;79.60
24426;DHT22;12611;44.446;26.000;2023-03-01T15:49:58;11.50;79.60
24426;DHT22;12611;44.446;26.000;2023-03-01T15:52:29;11.50;79.60
24426;DHT22;12611;44.446;26.000;2023-03-01T15:55:07;11.50;80.00